createdAt,value
2023-03-03T00:00:19.366Z,22.27
2023-03-03T00:02:49.120Z,22.27
2023-03-03T00:05:20.144Z,22.25
2023-03-03T00:07:50.690Z,22.25
2023-03-03T00:10:20.535Z,22.27
2023-03-03T00:12:52.517Z,22.26
2023-03-03T00:15:25.631Z,22.27
2023-03-03T00:17:56.286Z,22.26
2023-03-03T00:20:38.471Z,22.27
2023-03-03T00:23:40.726Z,22.29
2023-03-03T00:26:38.237Z,22.25
2023-03-03T00:29:29.057Z,22.30
2023-03-03T00:32:14.536Z,22.31
2023-03-03T00:34:45.174Z,22.29
2023-03-03T00:37:32.381Z,22.30
2023-03-03T00:40:18.691Z,22.31
2023-03-03T00:42:54.761Z,22.31
2023-03-03T00:45:27.107Z,22.30
2023-03-03T00:47:57.881Z,22.32
2023-03-03T00:50:38.001Z,22.34
2023-03-03T00:53:27.500Z,22.35
2023-03-03T00:55:57.393Z,22.34
2023-03-03T00:58:29.040Z,22.34
2023-03-03T01:01:00.410Z,22.33
2023-03-03T01:03:30.409Z,22.35
2023-03-03T01:06:00.340Z,22.34
2023-03-03T01:08:29.955Z,22.33
2023-03-03T01:11:05.355Z,22.35
2023-03-03T01:13:38.156Z,22.26
2023-03-03T01:16:08.617Z,22.26
2023-03-03T01:18:39.004Z,22.23
2023-03-03T01:21:08.688Z,22.33
2023-03-03T01:23:38.616Z,22.30
2023-03-03T01:26:08.406Z,22.29
2023-03-03T01:28:38.092Z,22.27
2023-03-03T01:31:08.431Z,22.38
2023-03-03T01:33:38.945Z,22.39
2023-03-03T01:36:09.343Z,22.34
2023-03-03T01:38:40.049Z,22.39
2023-03-03T01:41:09.830Z,22.40
2023-03-03T01:43:47.335Z,22.39
2023-03-03T01:46:28.986Z,22.42
2023-03-03T01:49:08.558Z,22.42
2023-03-03T01:51:51.165Z,22.42
2023-03-03T01:54:27.265Z,22.42
2023-03-03T01:56:59.896Z,22.45
2023-03-03T01:59:38.643Z,22.45
2023-03-03T02:02:08.829Z,22.45
2023-03-03T02:04:38.689Z,22.47
2023-03-03T02:07:12.660Z,22.46
2023-03-03T02:09:57.995Z,22.44
2023-03-03T02:13:01.589Z,22.48
2023-03-03T02:15:39.746Z,22.41
2023-03-03T02:18:16.441Z,22.50
2023-03-03T02:21:17.020Z,22.51
2023-03-03T02:24:01.456Z,22.50
2023-03-03T02:26:33.699Z,22.53
2023-03-03T02:29:03.517Z,22.47
2023-03-03T02:31:34.797Z,22.54
2023-03-03T02:34:04.387Z,22.55
2023-03-03T02:36:37.740Z,22.55
2023-03-03T02:39:10.069Z,22.55
2023-03-03T02:42:13.268Z,22.56
2023-03-03T02:44:43.066Z,22.58
2023-03-03T02:47:12.779Z,22.57
2023-03-03T02:49:43.152Z,22.49
2023-03-03T02:52:13.954Z,22.61
2023-03-03T02:54:43.534Z,22.61
2023-03-03T02:57:13.182Z,22.63
2023-03-03T02:59:42.784Z,22.61
2023-03-03T03:02:12.458Z,22.65
2023-03-03T03:04:42.082Z,22.65
2023-03-03T03:07:12.097Z,22.68
2023-03-03T03:09:41.794Z,22.57
2023-03-03T03:12:11.544Z,22.64
2023-03-03T03:14:41.174Z,22.65
2023-03-03T03:17:13.133Z,22.66
2023-03-03T03:19:43.035Z,22.69
2023-03-03T03:22:12.653Z,22.67
2023-03-03T03:24:42.268Z,22.73
2023-03-03T03:27:13.057Z,22.74
2023-03-03T03:29:42.853Z,22.76
2023-03-03T03:32:14.282Z,22.76
2023-03-03T03:34:43.916Z,22.77
2023-03-03T03:37:13.585Z,22.79
2023-03-03T03:39:43.364Z,22.81
2023-03-03T03:42:13.114Z,22.82
2023-03-03T03:44:42.868Z,22.85
2023-03-03T03:47:12.584Z,22.83
2023-03-03T03:49:42.260Z,22.80
2023-03-03T03:52:12.230Z,22.89
2023-03-03T03:54:41.837Z,22.90
2023-03-03T03:57:11.480Z,22.94
2023-03-03T03:59:41.228Z,22.98
2023-03-03T04:02:11.098Z,23.01
2023-03-03T04:04:40.754Z,23.05
2023-03-03T04:07:11.676Z,23.10
2023-03-03T04:09:41.772Z,23.10
2023-03-03T04:12:11.632Z,23.19
2023-03-03T04:14:41.344Z,23.17
2023-03-03T04:17:12.555Z,23.19
2023-03-03T04:19:42.100Z,23.20
2023-03-03T04:22:11.666Z,23.18
2023-03-03T04:24:42.107Z,23.33
2023-03-03T04:27:11.804Z,23.35
2023-03-03T04:29:41.529Z,23.37
2023-03-03T04:32:11.303Z,23.38
2023-03-03T04:34:40.946Z,23.46
2023-03-03T04:37:10.674Z,23.44
2023-03-03T04:39:40.255Z,23.47
2023-03-03T04:42:09.916Z,23.48
2023-03-03T04:44:39.751Z,23.54
2023-03-03T04:47:09.381Z,23.57
2023-03-03T04:49:39.269Z,23.62
2023-03-03T04:52:08.924Z,23.69
2023-03-03T04:54:38.523Z,23.72
2023-03-03T04:57:09.537Z,23.74
2023-03-03T04:59:39.230Z,23.79
2023-03-03T05:02:08.794Z,23.84
2023-03-03T05:04:38.928Z,23.86
2023-03-03T05:07:08.564Z,23.89
2023-03-03T05:09:38.658Z,23.95
2023-03-03T05:12:08.520Z,23.99
2023-03-03T05:14:38.133Z,24.03
2023-03-03T05:17:08.280Z,24.10
2023-03-03T05:19:38.039Z,24.09
2023-03-03T05:22:07.699Z,24.18
2023-03-03T05:24:37.275Z,24.18
2023-03-03T05:27:06.861Z,24.21
2023-03-03T05:29:36.500Z,24.28
2023-03-03T05:32:06.147Z,24.30
2023-03-03T05:34:35.761Z,24.34
2023-03-03T05:37:05.377Z,24.38
2023-03-03T05:39:36.217Z,24.40
2023-03-03T05:42:05.973Z,24.47
2023-03-03T05:44:35.567Z,24.52
2023-03-03T05:47:05.110Z,24.54
2023-03-03T05:49:34.734Z,24.53
2023-03-03T05:52:04.727Z,24.54
2023-03-03T05:54:34.714Z,24.65
2023-03-03T05:57:04.491Z,24.66
2023-03-03T05:59:34.132Z,24.70
2023-03-03T06:02:03.787Z,24.72
2023-03-03T06:04:33.442Z,24.78
2023-03-03T06:07:03.031Z,24.83
2023-03-03T06:09:32.702Z,24.85
2023-03-03T06:12:02.291Z,24.90
2023-03-03T06:14:32.011Z,24.95
2023-03-03T06:17:01.712Z,25.01
2023-03-03T06:19:31.377Z,25.01
2023-03-03T06:22:01.075Z,25.05
2023-03-03T06:24:32.828Z,25.09
2023-03-03T06:27:03.350Z,25.12
2023-03-03T06:29:33.071Z,25.15
2023-03-03T06:32:02.798Z,25.19
2023-03-03T06:34:32.442Z,25.21
2023-03-03T06:37:02.412Z,25.25
2023-03-03T06:39:32.079Z,25.30
2023-03-03T06:42:01.780Z,25.32
2023-03-03T06:44:31.436Z,25.33
2023-03-03T06:47:01.121Z,25.41
2023-03-03T06:49:30.887Z,25.41
2023-03-03T06:52:04.061Z,25.42
2023-03-03T06:54:33.691Z,25.44
2023-03-03T06:57:10.699Z,25.48
2023-03-03T06:59:40.379Z,25.51
2023-03-03T07:02:18.804Z,25.51
2023-03-03T07:04:51.471Z,25.55
2023-03-03T07:07:23.683Z,25.58
2023-03-03T07:09:59.190Z,25.59
2023-03-03T07:12:31.976Z,25.60
2023-03-03T07:15:14.599Z,25.65
2023-03-03T07:17:50.939Z,25.65
2023-03-03T07:20:25.316Z,25.67
2023-03-03T07:22:55.194Z,25.71
2023-03-03T07:25:39.715Z,25.71
2023-03-03T07:28:30.676Z,25.74
2023-03-03T07:31:00.944Z,25.67
2023-03-03T07:33:46.150Z,25.76
2023-03-03T07:36:36.769Z,25.76
2023-03-03T07:39:27.390Z,25.76
2023-03-03T07:42:16.428Z,25.74
2023-03-03T07:44:47.323Z,25.76
2023-03-03T07:47:27.469Z,25.74
2023-03-03T07:50:00.150Z,25.77
2023-03-03T07:52:42.240Z,25.75
2023-03-03T07:55:36.109Z,25.76
2023-03-03T07:58:17.990Z,25.75
2023-03-03T08:01:24.284Z,25.73
2023-03-03T08:03:57.212Z,25.74
2023-03-03T08:06:38.795Z,25.74
2023-03-03T08:09:14.266Z,25.69
2023-03-03T08:11:58.492Z,25.72
2023-03-03T08:14:32.382Z,25.67
2023-03-03T08:17:02.637Z,25.67
2023-03-03T08:19:33.886Z,25.68
2023-03-03T08:22:17.276Z,25.67
2023-03-03T08:24:47.156Z,25.63
2023-03-03T08:27:16.825Z,25.61
2023-03-03T08:29:48.432Z,25.60
2023-03-03T08:32:18.884Z,25.59
2023-03-03T08:34:48.530Z,25.57
2023-03-03T08:37:18.186Z,25.57
2023-03-03T08:39:48.400Z,25.56
2023-03-03T08:42:18.004Z,25.53
2023-03-03T08:44:47.545Z,25.54
2023-03-03T08:47:17.201Z,25.48
2023-03-03T08:49:46.828Z,25.46
2023-03-03T08:52:16.449Z,25.41
2023-03-03T08:54:46.204Z,25.33
2023-03-03T08:57:15.799Z,25.38
2023-03-03T08:59:45.542Z,25.33
2023-03-03T09:02:15.374Z,25.28
2023-03-03T09:04:45.023Z,25.26
2023-03-03T09:07:14.812Z,25.21
2023-03-03T09:09:44.459Z,25.15
2023-03-03T09:12:24.798Z,25.12
2023-03-03T09:14:54.493Z,25.10
2023-03-03T09:17:37.046Z,25.07
2023-03-03T09:20:31.096Z,24.98
2023-03-03T09:23:02.338Z,24.96
2023-03-03T09:25:31.913Z,24.92
2023-03-03T09:28:03.655Z,24.89
2023-03-03T09:30:41.025Z,24.88
2023-03-03T09:33:30.764Z,24.66
2023-03-03T09:36:38.954Z,24.67
2023-03-03T09:39:23.333Z,24.60
2023-03-03T09:42:07.520Z,24.62
2023-03-03T09:45:04.766Z,24.63
2023-03-03T09:47:39.869Z,24.49
2023-03-03T09:50:18.513Z,24.53
2023-03-03T09:53:12.176Z,24.51
2023-03-03T09:55:58.830Z,24.46
2023-03-03T09:58:37.416Z,24.47
2023-03-03T10:01:50.031Z,24.47
2023-03-03T10:04:37.655Z,24.46
2023-03-03T10:07:10.316Z,24.45
2023-03-03T10:10:10.227Z,24.47
2023-03-03T10:13:06.569Z,24.48
2023-03-03T10:15:53.207Z,24.46
2023-03-03T10:18:33.341Z,24.38
2023-03-03T10:21:17.412Z,24.45
2023-03-03T10:24:42.787Z,24.46
2023-03-03T10:27:33.663Z,24.45
2023-03-03T10:30:58.496Z,24.45
2023-03-03T10:33:51.867Z,24.42
2023-03-03T10:36:45.932Z,24.42
2023-03-03T10:39:54.007Z,24.42
2023-03-03T10:42:36.706Z,24.38
2023-03-03T10:45:24.482Z,24.41
2023-03-03T10:48:09.168Z,24.45
2023-03-03T10:51:06.877Z,24.42
2023-03-03T10:54:17.630Z,24.44
2023-03-03T10:56:53.851Z,24.41
2023-03-03T11:00:00.748Z,24.59
2023-03-03T11:02:38.712Z,24.59
2023-03-03T11:05:32.700Z,24.63
2023-03-03T11:08:30.094Z,24.63
2023-03-03T11:11:05.367Z,24.61
2023-03-03T11:13:59.991Z,24.66
2023-03-03T11:16:56.390Z,24.68
2023-03-03T11:19:50.298Z,24.69
2023-03-03T11:22:37.758Z,24.67
2023-03-03T11:25:41.955Z,24.67
2023-03-03T11:28:36.018Z,24.65
2023-03-03T11:31:15.861Z,24.65
2023-03-03T11:34:12.632Z,24.64
2023-03-03T11:36:51.682Z,24.68
2023-03-03T11:39:29.077Z,24.67
2023-03-03T11:42:19.843Z,24.65
2023-03-03T11:44:56.124Z,24.66
2023-03-03T11:47:51.544Z,24.66
2023-03-03T11:50:57.922Z,24.63
2023-03-03T11:53:38.873Z,24.55
2023-03-03T11:56:36.042Z,24.64
2023-03-03T11:59:20.557Z,24.65
2023-03-03T12:02:11.723Z,24.57
2023-03-03T12:05:12.968Z,24.59
2023-03-03T12:07:45.561Z,24.67
2023-03-03T12:10:25.274Z,24.60
2023-03-03T12:13:05.165Z,24.63
2023-03-03T12:15:51.908Z,24.64
2023-03-03T12:19:14.769Z,24.53
2023-03-03T12:22:10.354Z,24.55
2023-03-03T12:24:58.573Z,24.50
2023-03-03T12:27:52.153Z,24.51
2023-03-03T12:30:39.939Z,24.47
2023-03-03T12:33:30.369Z,24.44
2023-03-03T12:36:15.820Z,24.44
2023-03-03T12:39:06.670Z,24.50
2023-03-03T12:41:54.096Z,24.52
2023-03-03T12:45:02.063Z,24.47
2023-03-03T12:47:41.437Z,24.47
2023-03-03T12:50:26.008Z,24.44
2023-03-03T12:53:23.023Z,24.44
2023-03-03T12:55:58.843Z,24.41
2023-03-03T12:58:57.405Z,24.35
2023-03-03T13:01:48.304Z,24.31
2023-03-03T13:04:45.180Z,24.27
2023-03-03T13:08:16.475Z,24.18
2023-03-03T13:11:03.325Z,24.22
2023-03-03T13:13:50.918Z,24.20
2023-03-03T13:16:41.556Z,24.16
2023-03-03T13:19:28.999Z,24.19
2023-03-03T13:22:10.131Z,24.21
2023-03-03T13:25:02.930Z,24.11
2023-03-03T13:27:43.027Z,24.06
2023-03-03T13:30:28.424Z,24.04
2023-03-03T13:33:01.719Z,23.99
2023-03-03T13:35:48.925Z,23.92
2023-03-03T13:38:34.120Z,23.92
2023-03-03T13:41:26.569Z,23.90
2023-03-03T13:44:27.664Z,23.88
2023-03-03T13:47:06.197Z,23.87
2023-03-03T13:49:53.174Z,23.88
2023-03-03T13:52:26.225Z,23.88
2023-03-03T13:54:57.519Z,23.81
2023-03-03T13:57:45.280Z,23.85
2023-03-03T14:00:40.265Z,23.83
2023-03-03T14:03:35.848Z,23.77
2023-03-03T14:06:13.403Z,23.77
2023-03-03T14:09:01.015Z,23.75
2023-03-03T14:11:42.904Z,23.77
2023-03-03T14:14:24.672Z,23.81
2023-03-03T14:17:18.459Z,23.84
2023-03-03T14:20:03.560Z,23.73
2023-03-03T14:22:36.258Z,23.68
2023-03-03T14:25:12.150Z,23.69
2023-03-03T14:27:50.880Z,23.64
2023-03-03T14:30:42.284Z,23.56
2023-03-03T14:33:11.898Z,23.48
2023-03-03T14:35:53.409Z,23.50
2023-03-03T14:38:34.998Z,23.49
2023-03-03T14:41:25.452Z,23.46
2023-03-03T14:44:04.075Z,23.47
2023-03-03T14:46:41.091Z,23.43
2023-03-03T14:49:38.124Z,23.43
2023-03-03T14:52:19.960Z,23.41
2023-03-03T14:55:02.208Z,23.39
2023-03-03T14:57:47.831Z,23.38
2023-03-03T15:00:18.343Z,23.30
2023-03-03T15:03:10.559Z,23.35
2023-03-03T15:05:51.436Z,23.37
2023-03-03T15:08:35.688Z,23.38
2023-03-03T15:11:28.833Z,23.38
2023-03-03T15:14:20.420Z,23.37
2023-03-03T15:16:50.200Z,23.44
2023-03-03T15:19:19.716Z,23.45
2023-03-03T15:22:20.540Z,23.42
2023-03-03T15:25:03.117Z,23.37
2023-03-03T15:27:51.839Z,23.41
2023-03-03T15:30:31.018Z,23.43
2023-03-03T15:33:14.691Z,23.41
2023-03-03T15:35:43.668Z,23.34
2023-03-03T15:38:28.265Z,23.31
2023-03-03T15:41:41.569Z,23.28
2023-03-03T15:44:38.746Z,23.28
2023-03-03T15:47:24.013Z,23.34
2023-03-03T15:50:12.664Z,23.37
2023-03-03T15:53:06.238Z,23.34
2023-03-03T15:55:42.801Z,23.34
2023-03-03T15:58:42.732Z,23.30
2023-03-03T16:01:28.010Z,23.19
2023-03-03T16:04:03.319Z,23.24
2023-03-03T16:06:55.767Z,23.25
2023-03-03T16:09:38.285Z,23.29
2023-03-03T16:12:07.949Z,23.31
2023-03-03T16:15:14.127Z,23.33
2023-03-03T16:18:25.022Z,23.30
2023-03-03T16:21:09.764Z,23.25
2023-03-03T16:23:55.374Z,23.31
2023-03-03T16:26:24.964Z,23.29
2023-03-03T16:29:28.380Z,23.32
2023-03-03T16:32:10.551Z,23.33
2023-03-03T16:35:18.183Z,23.32
2023-03-03T16:38:13.571Z,23.29
2023-03-03T16:41:21.548Z,23.31
2023-03-03T16:44:27.412Z,23.24
2023-03-03T16:47:28.276Z,23.25
2023-03-03T16:50:21.088Z,23.30
2023-03-03T16:53:12.776Z,23.28
2023-03-03T16:56:02.968Z,23.23
2023-03-03T16:58:38.573Z,23.23
2023-03-03T17:01:41.218Z,23.18
2023-03-03T17:04:50.168Z,23.17
2023-03-03T17:07:51.520Z,23.12
2023-03-03T17:10:34.851Z,23.16
2023-03-03T17:13:22.590Z,23.23
2023-03-03T17:16:07.669Z,23.21
2023-03-03T17:18:50.984Z,23.19
2023-03-03T17:21:38.749Z,23.19
2023-03-03T17:24:14.144Z,23.19
2023-03-03T17:27:00.148Z,23.18
2023-03-03T17:29:44.992Z,23.17
2023-03-03T17:32:37.406Z,23.19
2023-03-03T17:35:22.328Z,23.17
2023-03-03T17:38:13.354Z,23.16
2023-03-03T17:41:05.884Z,23.15
2023-03-03T17:43:44.329Z,23.15
2023-03-03T17:46:27.778Z,23.17
2023-03-03T17:49:21.248Z,23.16
2023-03-03T17:52:10.867Z,23.06
2023-03-03T17:54:40.480Z,23.02
2023-03-03T17:57:25.250Z,23.05
2023-03-03T18:00:00.683Z,23.03
2023-03-03T18:02:54.500Z,23.08
2023-03-03T18:05:26.618Z,23.08
2023-03-03T18:08:22.205Z,23.10
2023-03-03T18:11:09.812Z,23.09
2023-03-03T18:14:01.382Z,23.07
2023-03-03T18:17:08.590Z,23.07
2023-03-03T18:20:05.669Z,23.08
2023-03-03T18:22:47.555Z,23.00
2023-03-03T18:25:19.813Z,22.95
2023-03-03T18:28:11.580Z,22.94
2023-03-03T18:31:02.364Z,22.92
2023-03-03T18:33:40.023Z,23.02
2023-03-03T18:36:40.850Z,23.02
2023-03-03T18:39:16.743Z,23.03
2023-03-03T18:42:25.008Z,23.03
2023-03-03T18:44:55.054Z,23.02
2023-03-03T18:47:59.469Z,23.02
2023-03-03T18:50:42.905Z,23.05
2023-03-03T18:53:31.857Z,23.03
2023-03-03T18:56:11.747Z,22.95
2023-03-03T18:58:47.596Z,22.92
2023-03-03T19:01:43.312Z,22.86
2023-03-03T19:04:24.841Z,22.86
2023-03-03T19:07:10.775Z,22.91
2023-03-03T19:10:15.912Z,22.96
2023-03-03T19:12:57.644Z,22.93
2023-03-03T19:15:33.612Z,22.94
2023-03-03T19:18:23.019Z,22.90
2023-03-03T19:21:10.503Z,22.94
2023-03-03T19:23:54.735Z,22.92
2023-03-03T19:26:27.465Z,22.93
2023-03-03T19:29:18.832Z,22.93
2023-03-03T19:31:59.012Z,22.91
2023-03-03T19:34:43.602Z,22.89
2023-03-03T19:37:25.286Z,22.89
2023-03-03T19:40:13.476Z,22.90
2023-03-03T19:43:02.219Z,22.89
2023-03-03T19:45:40.314Z,22.97
2023-03-03T19:48:37.654Z,23.02
2023-03-03T19:51:42.189Z,23.04
2023-03-03T19:54:46.390Z,22.87
2023-03-03T19:57:38.211Z,22.82
2023-03-03T20:00:28.965Z,22.93
2023-03-03T20:03:19.695Z,22.93
2023-03-03T20:06:25.619Z,22.96
2023-03-03T20:09:04.111Z,22.95
2023-03-03T20:11:51.636Z,22.95
2023-03-03T20:14:37.513Z,22.93
2023-03-03T20:17:33.805Z,22.95
2023-03-03T20:20:09.622Z,22.95
2023-03-03T20:23:22.888Z,22.93
2023-03-03T20:26:25.210Z,22.93
2023-03-03T20:29:36.738Z,22.91
2023-03-03T20:32:21.328Z,22.88
2023-03-03T20:35:08.887Z,22.88
2023-03-03T20:38:17.046Z,22.89
2023-03-03T20:40:55.381Z,22.83
2023-03-03T20:43:40.452Z,22.80
2023-03-03T20:46:27.225Z,22.81
2023-03-03T20:49:08.333Z,22.80
2023-03-03T20:51:43.654Z,22.79
2023-03-03T20:54:46.304Z,22.80
2023-03-03T20:57:21.937Z,22.77
2023-03-03T21:00:01.848Z,22.76
2023-03-03T21:02:49.725Z,22.75
2023-03-03T21:05:25.151Z,22.76
2023-03-03T21:07:56.382Z,22.76
2023-03-03T21:10:28.974Z,22.76
2023-03-03T21:13:01.250Z,22.75
2023-03-03T21:15:33.738Z,22.74
2023-03-03T21:18:20.884Z,22.73
2023-03-03T21:20:50.571Z,22.73
2023-03-03T21:23:22.527Z,22.71
2023-03-03T21:25:53.873Z,22.74
2023-03-03T21:28:36.448Z,22.73
2023-03-03T21:31:17.087Z,22.73
2023-03-03T21:33:57.221Z,22.73
2023-03-03T21:36:39.030Z,22.73
2023-03-03T21:39:31.009Z,22.74
2023-03-03T21:42:03.813Z,22.73
2023-03-03T21:44:34.959Z,22.72
2023-03-03T21:47:06.329Z,22.70
2023-03-03T21:49:36.426Z,22.70
2023-03-03T21:52:06.459Z,22.69
2023-03-03T21:54:36.155Z,22.70
2023-03-03T21:57:05.905Z,22.68
2023-03-03T21:59:35.592Z,22.71
2023-03-03T22:02:05.917Z,22.69
2023-03-03T22:04:36.751Z,22.67
2023-03-03T22:07:06.479Z,22.69
2023-03-03T22:09:37.254Z,22.68
2023-03-03T22:12:08.308Z,22.67
2023-03-03T22:14:37.946Z,22.69
2023-03-03T22:17:07.785Z,22.70
2023-03-03T22:19:37.361Z,22.69
2023-03-03T22:22:07.550Z,22.69
2023-03-03T22:24:37.108Z,22.68
2023-03-03T22:27:08.324Z,22.67
2023-03-03T22:29:37.912Z,22.73
2023-03-03T22:32:07.667Z,22.80
2023-03-03T22:34:37.632Z,22.73
2023-03-03T22:37:07.170Z,22.74
2023-03-03T22:39:36.744Z,22.73
2023-03-03T22:42:06.633Z,22.72
2023-03-03T22:44:36.286Z,22.72
2023-03-03T22:47:06.450Z,22.71
2023-03-03T22:49:35.996Z,22.70
2023-03-03T22:52:05.609Z,22.72
2023-03-03T22:54:35.145Z,22.72
2023-03-03T22:57:04.957Z,22.70
2023-03-03T22:59:36.069Z,22.70
2023-03-03T23:02:05.769Z,22.71
2023-03-03T23:04:35.650Z,22.71
2023-03-03T23:07:05.433Z,22.70
2023-03-03T23:09:35.098Z,22.68
2023-03-03T23:12:04.713Z,22.68
2023-03-03T23:14:34.219Z,22.68
2023-03-03T23:17:03.858Z,22.68
2023-03-03T23:19:33.422Z,22.68
2023-03-03T23:22:02.994Z,22.67
2023-03-03T23:24:34.612Z,22.66
2023-03-03T23:27:04.552Z,22.67
2023-03-03T23:29:34.177Z,22.66
2023-03-03T23:32:04.591Z,22.67
2023-03-03T23:34:34.652Z,22.66
2023-03-03T23:37:04.544Z,22.68
2023-03-03T23:39:34.122Z,22.67
2023-03-03T23:42:03.709Z,22.68
2023-03-03T23:44:33.567Z,22.69
2023-03-03T23:47:03.223Z,22.68
2023-03-03T23:49:33.025Z,22.68
2023-03-03T23:52:03.276Z,22.67
2023-03-03T23:54:33.118Z,22.64
2023-03-03T23:57:02.784Z,22.68
2023-03-03T23:59:32.387Z,22.70
